sensor_id;sensor_type;location;lat;lon;timestamp;P1;durP1;ratioP1;P2;durP2;ratioP2
43706;SDS011;61348;53.392;-6.248;2023-06-10T00:00:47;14.52;;;7.68;;
43706;SDS011;61348;53.392;-6.248;2023-06-10T00:03:14;13.55;;;7.75;;
43706;SDS011;61348;53.392;-6.248;2023-06-10T00:05:46;12.57;;;6.50;;
43706;SDS011;61348;53.392;-6.248;2023-06-10T00:08:13;15.18;;;7.53;;
43706;SDS011;61348;53.392;-6.248;2023-06-10T00:10:45;11.02;;;6.78;;
43706;SDS011;61348;53.392;-6.248;2023-06-10T00:13:12;14.85;;;8.27;;
43706;SDS011;61348;53.392;-6.248;2023-06-10T00:15:39;20.52;;;8.25;;
43706;SDS011;61348;53.392;-6.248;2023-06-10T00:18:06;15.40;;;7.43;;
43706;SDS011;61348;53.392;-6.248;2023-06-10T00:20:36;13.73;;;8.10;;
43706;SDS011;61348;53.392;-6.248;2023-06-10T00:23:04;12.80;;;8.60;;
43706;SDS011;61348;53.392;-6.248;2023-06-10T00:25:33;14.90;;;7.95;;
43706;SDS011;61348;53.392;-6.248;2023-06-10T00:27:59;14.70;;;8.02;;
43706;SDS011;61348;53.392;-6.248;2023-06-10T00:30:26;22.35;;;8.10;;
43706;SDS011;61348;53.392;-6.248;2023-06-10T00:32:53;23.55;;;9.82;;
43706;SDS011;61348;53.392;-6.248;2023-06-10T00:35:20;15.23;;;7.57;;
43706;SDS011;61348;53.392;-6.248;2023-06-10T00:37:47;12.95;;;7.65;;
43706;SDS011;61348;53.392;-6.248;2023-06-10T00:40:13;15.20;;;8.20;;
43706;SDS011;61348;53.392;-6.248;2023-06-10T00:42:41;17.17;;;8.23;;
43706;SDS011;61348;53.392;-6.248;2023-06-10T00:45:07;17.38;;;8.68;;
43706;SDS011;61348;53.392;-6.248;2023-06-10T00:47:35;17.10;;;7.90;;
43706;SDS011;61348;53.392;-6.248;2023-06-10T00:50:02;16.35;;;8.43;;
43706;SDS011;61348;53.392;-6.248;2023-06-10T00:52:30;20.65;;;8.68;;
43706;SDS011;61348;53.392;-6.248;2023-06-10T00:54:57;13.15;;;7.57;;
43706;SDS011;61348;53.392;-6.248;2023-06-10T00:57:25;17.25;;;8.30;;
43706;SDS011;61348;53.392;-6.248;2023-06-10T00:59:53;16.08;;;8.38;;
43706;SDS011;61348;53.392;-6.248;2023-06-10T01:02:20;20.02;;;9.75;;
43706;SDS011;61348;53.392;-6.248;2023-06-10T01:04:47;19.25;;;9.55;;
43706;SDS011;61348;53.392;-6.248;2023-06-10T01:09:55;14.40;;;9.38;;
43706;SDS011;61348;53.392;-6.248;2023-06-10T01:15:04;16.95;;;8.80;;
43706;SDS011;61348;53.392;-6.248;2023-06-10T01:17:32;19.65;;;9.32;;
43706;SDS011;61348;53.392;-6.248;2023-06-10T01:19:59;19.98;;;9.95;;
43706;SDS011;61348;53.392;-6.248;2023-06-10T01:22:26;22.45;;;10.80;;
43706;SDS011;61348;53.392;-6.248;2023-06-10T01:25:03;13.85;;;9.63;;
43706;SDS011;61348;53.392;-6.248;2023-06-10T01:27:31;15.15;;;10.05;;
43706;SDS011;61348;53.392;-6.248;2023-06-10T01:30:08;24.27;;;11.25;;
43706;SDS011;61348;53.392;-6.248;2023-06-10T01:32:45;17.05;;;9.85;;
43706;SDS011;61348;53.392;-6.248;2023-06-10T01:35:17;21.50;;;10.60;;
43706;SDS011;61348;53.392;-6.248;2023-06-10T01:37:46;28.85;;;11.95;;
43706;SDS011;61348;53.392;-6.248;2023-06-10T01:40:14;24.38;;;9.93;;
43706;SDS011;61348;53.392;-6.248;2023-06-10T01:42:42;17.75;;;9.98;;
43706;SDS011;61348;53.392;-6.248;2023-06-10T01:45:09;19.73;;;10.18;;
43706;SDS011;61348;53.392;-6.248;2023-06-10T01:47:36;19.67;;;10.00;;
43706;SDS011;61348;53.392;-6.248;2023-06-10T01:50:03;20.85;;;10.55;;
43706;SDS011;61348;53.392;-6.248;2023-06-10T01:52:31;21.33;;;9.98;;
43706;SDS011;61348;53.392;-6.248;2023-06-10T01:54:58;20.90;;;10.07;;
43706;SDS011;61348;53.392;-6.248;2023-06-10T01:57:27;22.25;;;12.05;;
43706;SDS011;61348;53.392;-6.248;2023-06-10T01:59:54;16.30;;;11.27;;
43706;SDS011;61348;53.392;-6.248;2023-06-10T02:02:21;26.10;;;10.93;;
43706;SDS011;61348;53.392;-6.248;2023-06-10T02:04:48;22.13;;;10.90;;
43706;SDS011;61348;53.392;-6.248;2023-06-10T02:07:15;23.55;;;12.85;;
43706;SDS011;61348;53.392;-6.248;2023-06-10T02:09:42;26.60;;;12.10;;
43706;SDS011;61348;53.392;-6.248;2023-06-10T02:12:09;23.20;;;10.80;;
43706;SDS011;61348;53.392;-6.248;2023-06-10T02:14:36;26.73;;;14.93;;
43706;SDS011;61348;53.392;-6.248;2023-06-10T02:17:03;21.10;;;11.38;;
43706;SDS011;61348;53.392;-6.248;2023-06-10T02:19:30;27.35;;;11.23;;
43706;SDS011;61348;53.392;-6.248;2023-06-10T02:21:57;25.80;;;12.32;;
43706;SDS011;61348;53.392;-6.248;2023-06-10T02:24:24;24.45;;;11.10;;
43706;SDS011;61348;53.392;-6.248;2023-06-10T02:26:51;21.80;;;11.63;;
43706;SDS011;61348;53.392;-6.248;2023-06-10T02:29:18;26.98;;;11.90;;
43706;SDS011;61348;53.392;-6.248;2023-06-10T02:31:45;22.95;;;12.23;;
43706;SDS011;61348;53.392;-6.248;2023-06-10T02:34:11;26.13;;;12.35;;
43706;SDS011;61348;53.392;-6.248;2023-06-10T02:36:38;22.30;;;12.20;;
43706;SDS011;61348;53.392;-6.248;2023-06-10T02:39:05;18.80;;;12.05;;
43706;SDS011;61348;53.392;-6.248;2023-06-10T02:41:32;26.92;;;11.50;;
43706;SDS011;61348;53.392;-6.248;2023-06-10T02:43:58;19.77;;;11.48;;
43706;SDS011;61348;53.392;-6.248;2023-06-10T02:46:25;28.30;;;14.18;;
43706;SDS011;61348;53.392;-6.248;2023-06-10T02:48:52;24.80;;;11.27;;
43706;SDS011;61348;53.392;-6.248;2023-06-10T02:51:19;22.00;;;10.73;;
43706;SDS011;61348;53.392;-6.248;2023-06-10T02:53:47;27.05;;;14.02;;
43706;SDS011;61348;53.392;-6.248;2023-06-10T02:56:15;22.20;;;11.20;;
43706;SDS011;61348;53.392;-6.248;2023-06-10T02:58:43;23.63;;;12.35;;
43706;SDS011;61348;53.392;-6.248;2023-06-10T03:01:10;21.63;;;12.25;;
43706;SDS011;61348;53.392;-6.248;2023-06-10T03:03:37;24.10;;;11.50;;
43706;SDS011;61348;53.392;-6.248;2023-06-10T03:06:11;22.08;;;11.95;;
43706;SDS011;61348;53.392;-6.248;2023-06-10T03:08:42;21.42;;;11.80;;
43706;SDS011;61348;53.392;-6.248;2023-06-10T03:11:09;25.52;;;11.35;;
43706;SDS011;61348;53.392;-6.248;2023-06-10T03:13:38;24.35;;;12.63;;
43706;SDS011;61348;53.392;-6.248;2023-06-10T03:16:06;18.45;;;10.63;;
43706;SDS011;61348;53.392;-6.248;2023-06-10T03:18:34;24.95;;;11.48;;
43706;SDS011;61348;53.392;-6.248;2023-06-10T03:21:01;16.45;;;10.30;;
43706;SDS011;61348;53.392;-6.248;2023-06-10T03:23:29;21.30;;;10.50;;
43706;SDS011;61348;53.392;-6.248;2023-06-10T03:25:56;20.85;;;9.55;;
43706;SDS011;61348;53.392;-6.248;2023-06-10T03:28:22;24.83;;;10.43;;
43706;SDS011;61348;53.392;-6.248;2023-06-10T03:30:49;21.67;;;10.07;;
43706;SDS011;61348;53.392;-6.248;2023-06-10T03:33:18;27.90;;;11.35;;
43706;SDS011;61348;53.392;-6.248;2023-06-10T03:35:44;29.63;;;10.55;;
43706;SDS011;61348;53.392;-6.248;2023-06-10T03:38:11;24.98;;;11.93;;
43706;SDS011;61348;53.392;-6.248;2023-06-10T03:40:38;21.63;;;9.40;;
43706;SDS011;61348;53.392;-6.248;2023-06-10T03:43:05;24.40;;;9.63;;
43706;SDS011;61348;53.392;-6.248;2023-06-10T03:45:32;22.83;;;10.93;;
43706;SDS011;61348;53.392;-6.248;2023-06-10T03:48:01;24.40;;;12.27;;
43706;SDS011;61348;53.392;-6.248;2023-06-10T03:50:28;21.05;;;10.52;;
43706;SDS011;61348;53.392;-6.248;2023-06-10T03:52:56;22.23;;;10.35;;
43706;SDS011;61348;53.392;-6.248;2023-06-10T03:55:24;21.60;;;10.13;;
43706;SDS011;61348;53.392;-6.248;2023-06-10T03:57:51;23.48;;;9.93;;
43706;SDS011;61348;53.392;-6.248;2023-06-10T04:00:18;20.77;;;10.00;;
43706;SDS011;61348;53.392;-6.248;2023-06-10T04:02:47;17.75;;;10.05;;
43706;SDS011;61348;53.392;-6.248;2023-06-10T04:05:19;21.50;;;11.27;;
43706;SDS011;61348;53.392;-6.248;2023-06-10T04:07:49;23.60;;;11.18;;
43706;SDS011;61348;53.392;-6.248;2023-06-10T04:10:16;18.52;;;9.75;;
43706;SDS011;61348;53.392;-6.248;2023-06-10T04:12:44;26.85;;;10.50;;
43706;SDS011;61348;53.392;-6.248;2023-06-10T04:15:11;20.85;;;9.93;;
43706;SDS011;61348;53.392;-6.248;2023-06-10T04:17:39;21.98;;;10.38;;
43706;SDS011;61348;53.392;-6.248;2023-06-10T04:20:06;21.45;;;10.27;;
43706;SDS011;61348;53.392;-6.248;2023-06-10T04:22:34;24.70;;;8.85;;
43706;SDS011;61348;53.392;-6.248;2023-06-10T04:25:01;20.52;;;10.20;;
43706;SDS011;61348;53.392;-6.248;2023-06-10T04:27:29;23.90;;;9.05;;
43706;SDS011;61348;53.392;-6.248;2023-06-10T04:29:56;23.23;;;9.32;;
43706;SDS011;61348;53.392;-6.248;2023-06-10T04:32:23;18.00;;;9.00;;
43706;SDS011;61348;53.392;-6.248;2023-06-10T04:34:50;22.38;;;9.23;;
43706;SDS011;61348;53.392;-6.248;2023-06-10T04:37:17;21.98;;;10.68;;
43706;SDS011;61348;53.392;-6.248;2023-06-10T04:39:44;22.30;;;8.70;;
43706;SDS011;61348;53.392;-6.248;2023-06-10T04:42:11;19.52;;;9.75;;
43706;SDS011;61348;53.392;-6.248;2023-06-10T04:44:38;18.90;;;9.30;;
43706;SDS011;61348;53.392;-6.248;2023-06-10T04:47:05;25.70;;;9.82;;
43706;SDS011;61348;53.392;-6.248;2023-06-10T04:49:34;23.38;;;8.82;;
43706;SDS011;61348;53.392;-6.248;2023-06-10T04:52:01;22.60;;;10.00;;
43706;SDS011;61348;53.392;-6.248;2023-06-10T04:54:30;22.35;;;8.80;;
43706;SDS011;61348;53.392;-6.248;2023-06-10T04:56:57;21.10;;;8.98;;
43706;SDS011;61348;53.392;-6.248;2023-06-10T04:59:24;16.88;;;9.98;;
43706;SDS011;61348;53.392;-6.248;2023-06-10T05:01:51;24.92;;;10.55;;
43706;SDS011;61348;53.392;-6.248;2023-06-10T05:04:18;17.67;;;9.55;;
43706;SDS011;61348;53.392;-6.248;2023-06-10T05:06:45;24.15;;;8.80;;
43706;SDS011;61348;53.392;-6.248;2023-06-10T05:09:12;21.83;;;9.13;;
43706;SDS011;61348;53.392;-6.248;2023-06-10T05:11:39;21.40;;;8.73;;
43706;SDS011;61348;53.392;-6.248;2023-06-10T05:14:06;17.92;;;8.88;;
43706;SDS011;61348;53.392;-6.248;2023-06-10T05:16:33;18.75;;;8.95;;
43706;SDS011;61348;53.392;-6.248;2023-06-10T05:19:00;20.00;;;8.85;;
43706;SDS011;61348;53.392;-6.248;2023-06-10T05:21:29;26.23;;;10.82;;
43706;SDS011;61348;53.392;-6.248;2023-06-10T05:23:56;21.90;;;10.00;;
43706;SDS011;61348;53.392;-6.248;2023-06-10T05:26:23;22.20;;;8.52;;
43706;SDS011;61348;53.392;-6.248;2023-06-10T05:28:51;22.70;;;9.45;;
43706;SDS011;61348;53.392;-6.248;2023-06-10T05:31:19;19.75;;;8.65;;
43706;SDS011;61348;53.392;-6.248;2023-06-10T05:33:46;21.83;;;8.73;;
43706;SDS011;61348;53.392;-6.248;2023-06-10T05:36:13;20.98;;;9.15;;
43706;SDS011;61348;53.392;-6.248;2023-06-10T05:38:39;19.30;;;10.57;;
43706;SDS011;61348;53.392;-6.248;2023-06-10T05:41:06;21.63;;;10.82;;
43706;SDS011;61348;53.392;-6.248;2023-06-10T05:43:33;26.95;;;8.73;;
43706;SDS011;61348;53.392;-6.248;2023-06-10T05:46:00;19.20;;;8.95;;
43706;SDS011;61348;53.392;-6.248;2023-06-10T05:48:27;21.90;;;8.68;;
43706;SDS011;61348;53.392;-6.248;2023-06-10T05:50:53;21.08;;;9.38;;
43706;SDS011;61348;53.392;-6.248;2023-06-10T05:53:20;23.13;;;9.85;;
43706;SDS011;61348;53.392;-6.248;2023-06-10T05:55:47;19.92;;;7.88;;
43706;SDS011;61348;53.392;-6.248;2023-06-10T05:58:15;21.70;;;8.80;;
43706;SDS011;61348;53.392;-6.248;2023-06-10T06:00:41;24.50;;;9.13;;
43706;SDS011;61348;53.392;-6.248;2023-06-10T06:03:09;20.83;;;9.48;;
43706;SDS011;61348;53.392;-6.248;2023-06-10T06:05:36;24.38;;;9.60;;
43706;SDS011;61348;53.392;-6.248;2023-06-10T06:08:05;18.83;;;7.85;;
43706;SDS011;61348;53.392;-6.248;2023-06-10T06:10:32;21.83;;;8.23;;
43706;SDS011;61348;53.392;-6.248;2023-06-10T06:12:59;17.52;;;8.65;;
43706;SDS011;61348;53.392;-6.248;2023-06-10T06:15:27;36.72;;;11.23;;
43706;SDS011;61348;53.392;-6.248;2023-06-10T06:17:54;17.77;;;8.55;;
43706;SDS011;61348;53.392;-6.248;2023-06-10T06:20:22;22.50;;;8.93;;
43706;SDS011;61348;53.392;-6.248;2023-06-10T06:22:49;26.05;;;9.15;;
43706;SDS011;61348;53.392;-6.248;2023-06-10T06:25:16;16.55;;;8.82;;
43706;SDS011;61348;53.392;-6.248;2023-06-10T06:27:45;25.45;;;8.45;;
43706;SDS011;61348;53.392;-6.248;2023-06-10T06:30:12;16.92;;;9.70;;
43706;SDS011;61348;53.392;-6.248;2023-06-10T06:32:39;19.60;;;8.48;;
43706;SDS011;61348;53.392;-6.248;2023-06-10T06:35:07;26.20;;;9.23;;
43706;SDS011;61348;53.392;-6.248;2023-06-10T06:37:35;23.60;;;9.65;;
43706;SDS011;61348;53.392;-6.248;2023-06-10T06:40:02;21.95;;;9.82;;
43706;SDS011;61348;53.392;-6.248;2023-06-10T06:42:30;23.65;;;10.57;;
43706;SDS011;61348;53.392;-6.248;2023-06-10T06:44:57;18.95;;;8.98;;
43706;SDS011;61348;53.392;-6.248;2023-06-10T06:47:24;23.30;;;9.18;;
43706;SDS011;61348;53.392;-6.248;2023-06-10T06:49:51;23.40;;;8.88;;
43706;SDS011;61348;53.392;-6.248;2023-06-10T06:52:18;22.30;;;9.32;;
43706;SDS011;61348;53.392;-6.248;2023-06-10T06:54:45;23.52;;;9.25;;
43706;SDS011;61348;53.392;-6.248;2023-06-10T06:57:12;19.50;;;9.02;;
43706;SDS011;61348;53.392;-6.248;2023-06-10T06:59:38;18.70;;;8.80;;
43706;SDS011;61348;53.392;-6.248;2023-06-10T07:02:06;22.02;;;9.02;;
43706;SDS011;61348;53.392;-6.248;2023-06-10T07:04:33;18.80;;;8.95;;
43706;SDS011;61348;53.392;-6.248;2023-06-10T07:07:00;18.40;;;8.80;;
43706;SDS011;61348;53.392;-6.248;2023-06-10T07:09:27;16.92;;;9.25;;
43706;SDS011;61348;53.392;-6.248;2023-06-10T07:11:54;21.75;;;10.98;;
43706;SDS011;61348;53.392;-6.248;2023-06-10T07:14:21;23.50;;;9.02;;
43706;SDS011;61348;53.392;-6.248;2023-06-10T07:16:49;29.52;;;8.95;;
43706;SDS011;61348;53.392;-6.248;2023-06-10T07:19:16;21.27;;;8.27;;
43706;SDS011;61348;53.392;-6.248;2023-06-10T07:21:42;24.75;;;9.77;;
43706;SDS011;61348;53.392;-6.248;2023-06-10T07:24:09;21.83;;;9.20;;
43706;SDS011;61348;53.392;-6.248;2023-06-10T07:26:36;30.85;;;10.90;;
43706;SDS011;61348;53.392;-6.248;2023-06-10T07:29:03;19.73;;;8.95;;
43706;SDS011;61348;53.392;-6.248;2023-06-10T07:31:30;20.20;;;8.48;;
43706;SDS011;61348;53.392;-6.248;2023-06-10T07:33:57;25.55;;;11.23;;
43706;SDS011;61348;53.392;-6.248;2023-06-10T07:36:24;21.52;;;8.73;;
43706;SDS011;61348;53.392;-6.248;2023-06-10T07:38:54;20.10;;;7.90;;
43706;SDS011;61348;53.392;-6.248;2023-06-10T07:41:22;26.95;;;9.63;;
43706;SDS011;61348;53.392;-6.248;2023-06-10T07:43:52;22.73;;;7.95;;
43706;SDS011;61348;53.392;-6.248;2023-06-10T07:46:21;23.20;;;10.68;;
43706;SDS011;61348;53.392;-6.248;2023-06-10T07:48:48;20.88;;;8.60;;
43706;SDS011;61348;53.392;-6.248;2023-06-10T07:51:16;25.90;;;9.55;;
43706;SDS011;61348;53.392;-6.248;2023-06-10T07:53:43;21.63;;;9.35;;
43706;SDS011;61348;53.392;-6.248;2023-06-10T07:56:10;16.23;;;7.57;;
43706;SDS011;61348;53.392;-6.248;2023-06-10T07:58:38;17.27;;;8.30;;
43706;SDS011;61348;53.392;-6.248;2023-06-10T08:01:05;16.30;;;8.50;;
43706;SDS011;61348;53.392;-6.248;2023-06-10T08:03:31;21.40;;;8.85;;
43706;SDS011;61348;53.392;-6.248;2023-06-10T08:05:59;20.23;;;8.27;;
43706;SDS011;61348;53.392;-6.248;2023-06-10T08:08:25;16.92;;;8.95;;
43706;SDS011;61348;53.392;-6.248;2023-06-10T08:10:52;15.43;;;6.85;;
43706;SDS011;61348;53.392;-6.248;2023-06-10T08:13:19;17.80;;;8.00;;
43706;SDS011;61348;53.392;-6.248;2023-06-10T08:15:47;19.88;;;8.18;;
43706;SDS011;61348;53.392;-6.248;2023-06-10T08:18:17;23.25;;;8.02;;
43706;SDS011;61348;53.392;-6.248;2023-06-10T08:20:43;20.65;;;8.43;;
43706;SDS011;61348;53.392;-6.248;2023-06-10T08:23:10;17.10;;;7.38;;
43706;SDS011;61348;53.392;-6.248;2023-06-10T08:25:37;22.42;;;8.73;;
43706;SDS011;61348;53.392;-6.248;2023-06-10T08:28:04;25.48;;;10.48;;
43706;SDS011;61348;53.392;-6.248;2023-06-10T08:30:31;15.93;;;8.25;;
43706;SDS011;61348;53.392;-6.248;2023-06-10T08:32:57;18.80;;;8.32;;
43706;SDS011;61348;53.392;-6.248;2023-06-10T08:35:24;22.38;;;8.60;;
43706;SDS011;61348;53.392;-6.248;2023-06-10T08:37:51;19.08;;;7.82;;
43706;SDS011;61348;53.392;-6.248;2023-06-10T08:40:18;23.60;;;9.00;;
43706;SDS011;61348;53.392;-6.248;2023-06-10T08:45:18;20.20;;;8.55;;
43706;SDS011;61348;53.392;-6.248;2023-06-10T08:47:45;20.08;;;8.18;;
43706;SDS011;61348;53.392;-6.248;2023-06-10T08:50:17;22.23;;;11.45;;
43706;SDS011;61348;53.392;-6.248;2023-06-10T08:52:45;19.80;;;9.00;;
43706;SDS011;61348;53.392;-6.248;2023-06-10T08:55:17;17.58;;;8.45;;
43706;SDS011;61348;53.392;-6.248;2023-06-10T08:57:48;23.92;;;9.02;;
43706;SDS011;61348;53.392;-6.248;2023-06-10T09:00:18;22.38;;;9.13;;
43706;SDS011;61348;53.392;-6.248;2023-06-10T09:02:45;25.23;;;10.27;;
43706;SDS011;61348;53.392;-6.248;2023-06-10T09:05:13;20.88;;;9.05;;
43706;SDS011;61348;53.392;-6.248;2023-06-10T09:07:43;19.52;;;9.02;;
43706;SDS011;61348;53.392;-6.248;2023-06-10T09:10:11;23.95;;;8.00;;
43706;SDS011;61348;53.392;-6.248;2023-06-10T09:12:38;24.00;;;10.27;;
43706;SDS011;61348;53.392;-6.248;2023-06-10T09:15:06;18.80;;;8.50;;
43706;SDS011;61348;53.392;-6.248;2023-06-10T09:17:33;16.92;;;8.60;;
43706;SDS011;61348;53.392;-6.248;2023-06-10T09:20:02;21.23;;;9.02;;
43706;SDS011;61348;53.392;-6.248;2023-06-10T09:22:29;16.70;;;8.93;;
43706;SDS011;61348;53.392;-6.248;2023-06-10T09:25:06;19.50;;;8.63;;
43706;SDS011;61348;53.392;-6.248;2023-06-10T09:27:43;21.83;;;8.65;;
43706;SDS011;61348;53.392;-6.248;2023-06-10T09:30:24;22.13;;;9.70;;
43706;SDS011;61348;53.392;-6.248;2023-06-10T09:33:01;21.75;;;8.70;;
43706;SDS011;61348;53.392;-6.248;2023-06-10T09:35:35;19.38;;;8.23;;
43706;SDS011;61348;53.392;-6.248;2023-06-10T09:38:02;21.67;;;9.70;;
43706;SDS011;61348;53.392;-6.248;2023-06-10T09:40:29;20.60;;;7.75;;
43706;SDS011;61348;53.392;-6.248;2023-06-10T09:42:57;20.10;;;9.55;;
43706;SDS011;61348;53.392;-6.248;2023-06-10T09:45:32;21.30;;;8.43;;
43706;SDS011;61348;53.392;-6.248;2023-06-10T09:47:59;28.27;;;9.45;;
43706;SDS011;61348;53.392;-6.248;2023-06-10T09:50:27;25.08;;;8.15;;
43706;SDS011;61348;53.392;-6.248;2023-06-10T09:52:54;22.13;;;8.63;;
43706;SDS011;61348;53.392;-6.248;2023-06-10T09:55:23;23.52;;;9.63;;
43706;SDS011;61348;53.392;-6.248;2023-06-10T09:57:52;20.73;;;8.85;;
43706;SDS011;61348;53.392;-6.248;2023-06-10T10:00:21;19.83;;;9.93;;
43706;SDS011;61348;53.392;-6.248;2023-06-10T10:02:49;19.67;;;9.68;;
43706;SDS011;61348;53.392;-6.248;2023-06-10T10:05:18;17.40;;;9.00;;
43706;SDS011;61348;53.392;-6.248;2023-06-10T10:07:49;25.25;;;10.45;;
43706;SDS011;61348;53.392;-6.248;2023-06-10T10:10:17;21.10;;;9.23;;
43706;SDS011;61348;53.392;-6.248;2023-06-10T10:12:46;29.05;;;9.68;;
43706;SDS011;61348;53.392;-6.248;2023-06-10T10:15:14;19.88;;;8.35;;
43706;SDS011;61348;53.392;-6.248;2023-06-10T10:17:56;18.95;;;8.82;;
43706;SDS011;61348;53.392;-6.248;2023-06-10T10:20:29;25.02;;;9.32;;
43706;SDS011;61348;53.392;-6.248;2023-06-10T10:22:59;23.58;;;10.35;;
43706;SDS011;61348;53.392;-6.248;2023-06-10T10:25:32;17.75;;;8.75;;
43706;SDS011;61348;53.392;-6.248;2023-06-10T10:28:06;22.15;;;10.18;;
43706;SDS011;61348;53.392;-6.248;2023-06-10T10:30:40;20.42;;;10.45;;
43706;SDS011;61348;53.392;-6.248;2023-06-10T10:33:18;20.70;;;10.07;;
43706;SDS011;61348;53.392;-6.248;2023-06-10T10:35:49;23.38;;;11.52;;
43706;SDS011;61348;53.392;-6.248;2023-06-10T10:38:17;27.25;;;11.27;;
43706;SDS011;61348;53.392;-6.248;2023-06-10T10:40:44;22.50;;;10.98;;
43706;SDS011;61348;53.392;-6.248;2023-06-10T10:43:13;21.95;;;9.95;;
43706;SDS011;61348;53.392;-6.248;2023-06-10T10:45:42;24.52;;;10.90;;
43706;SDS011;61348;53.392;-6.248;2023-06-10T10:48:08;18.08;;;8.98;;
43706;SDS011;61348;53.392;-6.248;2023-06-10T10:50:38;19.25;;;9.20;;
43706;SDS011;61348;53.392;-6.248;2023-06-10T10:53:07;19.75;;;10.45;;
43706;SDS011;61348;53.392;-6.248;2023-06-10T10:55:34;20.40;;;11.45;;
43706;SDS011;61348;53.392;-6.248;2023-06-10T10:58:05;22.13;;;10.68;;
43706;SDS011;61348;53.392;-6.248;2023-06-10T11:00:34;23.52;;;10.05;;
43706;SDS011;61348;53.392;-6.248;2023-06-10T11:06:08;17.23;;;9.10;;
43706;SDS011;61348;53.392;-6.248;2023-06-10T11:11:17;16.75;;;8.70;;
43706;SDS011;61348;53.392;-6.248;2023-06-10T11:14:06;21.85;;;10.15;;
43706;SDS011;61348;53.392;-6.248;2023-06-10T11:16:39;22.58;;;10.15;;
43706;SDS011;61348;53.392;-6.248;2023-06-10T11:19:14;18.65;;;9.77;;
43706;SDS011;61348;53.392;-6.248;2023-06-10T11:22:05;22.20;;;10.60;;
43706;SDS011;61348;53.392;-6.248;2023-06-10T11:24:33;22.75;;;10.25;;
43706;SDS011;61348;53.392;-6.248;2023-06-10T11:29:57;15.48;;;9.35;;
43706;SDS011;61348;53.392;-6.248;2023-06-10T11:32:32;20.02;;;9.48;;
43706;SDS011;61348;53.392;-6.248;2023-06-10T11:35:04;24.02;;;10.27;;
43706;SDS011;61348;53.392;-6.248;2023-06-10T11:37:33;24.27;;;11.38;;
43706;SDS011;61348;53.392;-6.248;2023-06-10T11:40:00;21.77;;;10.13;;
43706;SDS011;61348;53.392;-6.248;2023-06-10T11:42:27;20.25;;;8.80;;
43706;SDS011;61348;53.392;-6.248;2023-06-10T11:44:54;25.42;;;10.85;;
43706;SDS011;61348;53.392;-6.248;2023-06-10T11:47:21;20.52;;;9.20;;
43706;SDS011;61348;53.392;-6.248;2023-06-10T11:49:57;21.50;;;9.95;;
43706;SDS011;61348;53.392;-6.248;2023-06-10T11:52:28;21.27;;;10.75;;
43706;SDS011;61348;53.392;-6.248;2023-06-10T11:55:04;17.02;;;9.55;;
43706;SDS011;61348;53.392;-6.248;2023-06-10T11:57:35;20.50;;;9.60;;
43706;SDS011;61348;53.392;-6.248;2023-06-10T12:00:05;20.02;;;9.75;;
43706;SDS011;61348;53.392;-6.248;2023-06-10T12:02:36;23.20;;;11.20;;
43706;SDS011;61348;53.392;-6.248;2023-06-10T12:05:11;19.90;;;9.70;;
43706;SDS011;61348;53.392;-6.248;2023-06-10T12:07:39;22.15;;;10.23;;
43706;SDS011;61348;53.392;-6.248;2023-06-10T12:10:06;20.02;;;11.05;;
43706;SDS011;61348;53.392;-6.248;2023-06-10T12:12:52;19.65;;;10.13;;
43706;SDS011;61348;53.392;-6.248;2023-06-10T12:15:25;18.98;;;11.07;;
43706;SDS011;61348;53.392;-6.248;2023-06-10T12:17:52;24.52;;;11.85;;
43706;SDS011;61348;53.392;-6.248;2023-06-10T12:20:26;23.75;;;10.90;;
43706;SDS011;61348;53.392;-6.248;2023-06-10T12:22:54;18.02;;;10.93;;
43706;SDS011;61348;53.392;-6.248;2023-06-10T12:25:25;19.48;;;10.50;;
43706;SDS011;61348;53.392;-6.248;2023-06-10T12:27:56;18.80;;;10.70;;
43706;SDS011;61348;53.392;-6.248;2023-06-10T12:30:25;22.90;;;11.15;;
43706;SDS011;61348;53.392;-6.248;2023-06-10T12:32:53;26.45;;;12.35;;
43706;SDS011;61348;53.392;-6.248;2023-06-10T12:35:21;21.80;;;11.23;;
43706;SDS011;61348;53.392;-6.248;2023-06-10T12:38:09;18.75;;;11.10;;
43706;SDS011;61348;53.392;-6.248;2023-06-10T12:40:41;20.75;;;10.77;;
43706;SDS011;61348;53.392;-6.248;2023-06-10T12:43:08;27.33;;;13.27;;
43706;SDS011;61348;53.392;-6.248;2023-06-10T12:45:36;22.00;;;10.95;;
43706;SDS011;61348;53.392;-6.248;2023-06-10T12:50:51;23.38;;;13.65;;
43706;SDS011;61348;53.392;-6.248;2023-06-10T12:53:20;19.77;;;10.40;;
43706;SDS011;61348;53.392;-6.248;2023-06-10T12:55:51;22.02;;;11.65;;
43706;SDS011;61348;53.392;-6.248;2023-06-10T12:58:20;28.02;;;11.85;;
43706;SDS011;61348;53.392;-6.248;2023-06-10T13:00:48;19.05;;;12.02;;
43706;SDS011;61348;53.392;-6.248;2023-06-10T13:03:18;23.02;;;11.52;;
43706;SDS011;61348;53.392;-6.248;2023-06-10T13:05:45;20.08;;;12.23;;
43706;SDS011;61348;53.392;-6.248;2023-06-10T13:08:12;27.48;;;11.60;;
43706;SDS011;61348;53.392;-6.248;2023-06-10T13:10:39;18.15;;;9.88;;
43706;SDS011;61348;53.392;-6.248;2023-06-10T13:13:06;20.70;;;11.18;;
43706;SDS011;61348;53.392;-6.248;2023-06-10T13:15:36;22.80;;;11.45;;
43706;SDS011;61348;53.392;-6.248;2023-06-10T13:18:08;23.98;;;12.48;;
43706;SDS011;61348;53.392;-6.248;2023-06-10T13:20:35;18.55;;;10.30;;
43706;SDS011;61348;53.392;-6.248;2023-06-10T13:23:02;20.63;;;10.73;;
43706;SDS011;61348;53.392;-6.248;2023-06-10T13:25:29;18.63;;;11.13;;
43706;SDS011;61348;53.392;-6.248;2023-06-10T13:27:56;19.27;;;10.52;;
43706;SDS011;61348;53.392;-6.248;2023-06-10T13:30:23;18.58;;;10.80;;
43706;SDS011;61348;53.392;-6.248;2023-06-10T13:32:51;22.83;;;12.27;;
43706;SDS011;61348;53.392;-6.248;2023-06-10T13:35:17;21.00;;;10.93;;
43706;SDS011;61348;53.392;-6.248;2023-06-10T13:37:44;26.70;;;12.57;;
43706;SDS011;61348;53.392;-6.248;2023-06-10T13:40:11;20.60;;;10.60;;
43706;SDS011;61348;53.392;-6.248;2023-06-10T13:42:38;27.60;;;13.13;;
43706;SDS011;61348;53.392;-6.248;2023-06-10T13:45:06;24.90;;;10.68;;
43706;SDS011;61348;53.392;-6.248;2023-06-10T13:47:33;23.63;;;11.02;;
43706;SDS011;61348;53.392;-6.248;2023-06-10T13:50:00;29.92;;;11.77;;
43706;SDS011;61348;53.392;-6.248;2023-06-10T13:52:27;20.48;;;12.40;;
43706;SDS011;61348;53.392;-6.248;2023-06-10T13:54:54;18.27;;;11.23;;
43706;SDS011;61348;53.392;-6.248;2023-06-10T13:57:21;23.10;;;11.20;;
43706;SDS011;61348;53.392;-6.248;2023-06-10T13:59:48;18.40;;;10.45;;
43706;SDS011;61348;53.392;-6.248;2023-06-10T14:02:16;30.02;;;12.95;;
43706;SDS011;61348;53.392;-6.248;2023-06-10T14:04:43;28.55;;;12.43;;
43706;SDS011;61348;53.392;-6.248;2023-06-10T14:07:10;24.23;;;11.48;;
43706;SDS011;61348;53.392;-6.248;2023-06-10T14:09:37;17.33;;;9.23;;
43706;SDS011;61348;53.392;-6.248;2023-06-10T14:12:04;18.42;;;10.85;;
43706;SDS011;61348;53.392;-6.248;2023-06-10T14:14:31;14.90;;;8.55;;
43706;SDS011;61348;53.392;-6.248;2023-06-10T14:17:00;22.08;;;9.60;;
43706;SDS011;61348;53.392;-6.248;2023-06-10T14:19:27;13.70;;;9.00;;
43706;SDS011;61348;53.392;-6.248;2023-06-10T14:21:54;16.58;;;9.27;;
43706;SDS011;61348;53.392;-6.248;2023-06-10T14:24:22;17.85;;;8.82;;
43706;SDS011;61348;53.392;-6.248;2023-06-10T14:26:50;19.23;;;10.05;;
43706;SDS011;61348;53.392;-6.248;2023-06-10T14:29:18;18.88;;;9.38;;
43706;SDS011;61348;53.392;-6.248;2023-06-10T14:31:46;20.92;;;10.50;;
43706;SDS011;61348;53.392;-6.248;2023-06-10T14:34:13;16.30;;;9.40;;
43706;SDS011;61348;53.392;-6.248;2023-06-10T14:36:42;20.95;;;9.23;;
43706;SDS011;61348;53.392;-6.248;2023-06-10T14:39:09;12.55;;;8.10;;
43706;SDS011;61348;53.392;-6.248;2023-06-10T14:41:36;15.48;;;9.43;;